KNEL/NEL METAR and TAF weather

Enter ICAO airport designator
Station Type Date Time Source
KNEL METAR 2021/09/28 16:00 UTC NOAA

KNEL 281600Z 26004KT 10SM BKN080 22/16 A2983 RMK AO2 RAB1502E1544 TSE1523 SLP100 P0000 T02220156 $


Station Type Date Time Source
KNEL Decoded METAR 2021/09/28 16:00 UTC NOAA

Lakehurst Naval Air Station, NJ, United States (KNEL) 40-02N 074-19W 24M
Sep 28, 2021 - 12:00 PM EDT / 2021.09.28 1600 UTC
Wind: from the W (260 degrees) at 5 MPH (4 KT):0
Visibility: 10 mile(s):0
Sky conditions: mostly cloudy
Precipitation last hour: A trace
Temperature: 72.0 F (22.2 C)
Dew Point: 60.1 F (15.6 C)
Relative Humidity: 66%
Pressure (altimeter): 29.83 in. Hg (1010 hPa)
ob: KNEL 281600Z 26004KT 10SM BKN080 22/16 A2983 RMK AO2 RAB1502E1544 TSE1523 SLP100 P0000 T02220156
cycle: 16

Station Type Date Time Source
KNEL TAF UTC NOAA

Error!

Example: see airport list